Airfield :
LOGIN :

Register | Disclaimer

   EN    FR    IT 

 










Legend :    VFR   Marginal VFR   IFR   Intensive IFR   Very Intensive IFR
Visi :
Ceiling :
>= 8 km
>= 3000ft
5 to 8 km
1000 to 3000 ft
1500m to 5 km
500 to 1000 ft
800 to 1500m
200 to 500 ft
< 800m
< 200 ft
Symbols :   Thunderstorms  Fog  Heavy snow  Heavy precipitations  Wind > 20 kt
SIGMETs :     Misc.  Thunderstorms  Icing  Turbulence  Mountain Waves  Volcanic Ashes






- Airport Elevation : 1202 ft
- IATA code : IGS


ETSI - Ingolstadt

CURRENT METAR :
  • 150720Z 08007KT 9999 FEW170 SCT240 BKN330 04/02 Q0996 BLU+BLU+

EXPIRED METARs :
  • 150620Z 07009KT 9999 FEW170 BKN230 03/01 Q0995 BLU+BLU+
  • 150520Z 06007KT 9999 BKN210 03/01 Q0996 BLU+BLU+
  • 150420Z 08007KT 9999 BKN210 03/01 Q0996 BLU+

TAF TAF ETSI
Valid from the 15 at 06:00 until the 15 at 15:00 UTC


150506Z 1506/1515 07010KT 9999 NSW SCT150 BKN200
BECMG 1510/1512 26008KT 9999 NSW FEW030 BKN100 BKN200



MET'MAP, your aeronautical weather chart ! - Copyright ORBIFLY December 2007 - Disclaimer

ORBIFLY MET'MAP TEAM :

Programming & Development : Alexandra Zaïnal
Concept & Development : Baudouin d'Aumeries
Co-Development & Prog : Marc-Olivier Méhu
Technical & hardware support : Manuel Goepfert

Contact : metmap@orbifly.com




SOURCES & CREDITS :

   NOAA